sensor_id;sensor_type;location;lat;lon;timestamp;P1;durP1;ratioP1;P2;durP2;ratioP2
10226;SDS011;15634;48.766;2.272;2023-10-19T00:00:41;10.57;;;3.08;;
10226;SDS011;15634;48.766;2.272;2023-10-19T00:03:13;8.32;;;2.40;;
10226;SDS011;15634;48.766;2.272;2023-10-19T00:05:39;9.23;;;2.75;;
10226;SDS011;15634;48.766;2.272;2023-10-19T00:08:10;8.82;;;2.75;;
10226;SDS011;15634;48.766;2.272;2023-10-19T00:10:49;7.78;;;2.70;;
10226;SDS011;15634;48.766;2.272;2023-10-19T00:13:36;12.18;;;2.78;;
10226;SDS011;15634;48.766;2.272;2023-10-19T00:16:06;7.82;;;2.70;;
10226;SDS011;15634;48.766;2.272;2023-10-19T00:19:07;8.95;;;2.90;;
10226;SDS011;15634;48.766;2.272;2023-10-19T00:21:34;12.52;;;2.83;;
10226;SDS011;15634;48.766;2.272;2023-10-19T00:24:14;9.52;;;2.67;;
10226;SDS011;15634;48.766;2.272;2023-10-19T00:26:42;8.00;;;2.75;;
10226;SDS011;15634;48.766;2.272;2023-10-19T00:29:09;13.02;;;3.15;;
10226;SDS011;15634;48.766;2.272;2023-10-19T00:32:04;13.20;;;2.75;;
10226;SDS011;15634;48.766;2.272;2023-10-19T00:34:31;11.98;;;3.60;;
10226;SDS011;15634;48.766;2.272;2023-10-19T00:36:58;9.95;;;3.38;;
10226;SDS011;15634;48.766;2.272;2023-10-19T00:39:33;12.40;;;3.03;;
10226;SDS011;15634;48.766;2.272;2023-10-19T00:42:08;10.35;;;3.05;;
10226;SDS011;15634;48.766;2.272;2023-10-19T00:44:34;11.98;;;2.80;;
10226;SDS011;15634;48.766;2.272;2023-10-19T00:47:07;12.23;;;3.08;;
10226;SDS011;15634;48.766;2.272;2023-10-19T00:49:38;14.82;;;3.60;;
10226;SDS011;15634;48.766;2.272;2023-10-19T00:52:04;13.02;;;3.33;;
10226;SDS011;15634;48.766;2.272;2023-10-19T00:54:44;15.52;;;3.85;;
10226;SDS011;15634;48.766;2.272;2023-10-19T00:57:13;15.50;;;3.60;;
10226;SDS011;15634;48.766;2.272;2023-10-19T00:59:44;14.52;;;3.60;;
10226;SDS011;15634;48.766;2.272;2023-10-19T01:02:25;12.70;;;3.40;;
10226;SDS011;15634;48.766;2.272;2023-10-19T01:04:53;13.57;;;3.55;;
10226;SDS011;15634;48.766;2.272;2023-10-19T01:07:26;13.02;;;3.45;;
10226;SDS011;15634;48.766;2.272;2023-10-19T01:09:58;15.73;;;3.63;;
10226;SDS011;15634;48.766;2.272;2023-10-19T01:12:46;11.20;;;3.05;;
10226;SDS011;15634;48.766;2.272;2023-10-19T01:15:13;15.65;;;3.70;;
10226;SDS011;15634;48.766;2.272;2023-10-19T01:17:49;14.73;;;3.30;;
10226;SDS011;15634;48.766;2.272;2023-10-19T01:20:21;17.00;;;3.85;;
10226;SDS011;15634;48.766;2.272;2023-10-19T01:23:07;16.00;;;4.00;;
10226;SDS011;15634;48.766;2.272;2023-10-19T01:25:46;16.27;;;4.00;;
10226;SDS011;15634;48.766;2.272;2023-10-19T01:28:19;14.02;;;3.58;;
10226;SDS011;15634;48.766;2.272;2023-10-19T01:30:49;12.07;;;3.38;;
10226;SDS011;15634;48.766;2.272;2023-10-19T01:33:18;13.00;;;3.58;;
10226;SDS011;15634;48.766;2.272;2023-10-19T01:35:44;14.32;;;3.40;;
10226;SDS011;15634;48.766;2.272;2023-10-19T01:38:28;16.55;;;4.15;;
10226;SDS011;15634;48.766;2.272;2023-10-19T01:41:01;12.93;;;3.85;;
10226;SDS011;15634;48.766;2.272;2023-10-19T01:43:31;17.92;;;4.00;;
10226;SDS011;15634;48.766;2.272;2023-10-19T01:46:00;15.82;;;4.45;;
10226;SDS011;15634;48.766;2.272;2023-10-19T01:48:30;15.10;;;3.92;;
10226;SDS011;15634;48.766;2.272;2023-10-19T01:51:02;13.85;;;3.20;;
10226;SDS011;15634;48.766;2.272;2023-10-19T01:53:32;13.20;;;3.58;;
10226;SDS011;15634;48.766;2.272;2023-10-19T01:55:58;10.32;;;3.13;;
10226;SDS011;15634;48.766;2.272;2023-10-19T01:58:25;12.20;;;3.00;;
10226;SDS011;15634;48.766;2.272;2023-10-19T02:00:51;15.95;;;3.65;;
10226;SDS011;15634;48.766;2.272;2023-10-19T02:03:25;13.10;;;3.63;;
10226;SDS011;15634;48.766;2.272;2023-10-19T02:05:59;16.77;;;3.65;;
10226;SDS011;15634;48.766;2.272;2023-10-19T02:08:34;17.17;;;3.50;;
10226;SDS011;15634;48.766;2.272;2023-10-19T02:11:03;17.63;;;3.97;;
10226;SDS011;15634;48.766;2.272;2023-10-19T02:13:34;10.70;;;3.47;;
10226;SDS011;15634;48.766;2.272;2023-10-19T02:16:00;11.18;;;3.63;;
10226;SDS011;15634;48.766;2.272;2023-10-19T02:18:26;15.18;;;3.10;;
10226;SDS011;15634;48.766;2.272;2023-10-19T02:20:52;20.02;;;3.47;;
10226;SDS011;15634;48.766;2.272;2023-10-19T02:23:18;15.52;;;3.83;;
10226;SDS011;15634;48.766;2.272;2023-10-19T02:25:44;18.20;;;4.05;;
10226;SDS011;15634;48.766;2.272;2023-10-19T02:28:10;15.85;;;3.47;;
10226;SDS011;15634;48.766;2.272;2023-10-19T02:30:36;13.57;;;3.33;;
10226;SDS011;15634;48.766;2.272;2023-10-19T02:33:05;13.38;;;3.20;;
10226;SDS011;15634;48.766;2.272;2023-10-19T02:35:31;14.10;;;3.50;;
10226;SDS011;15634;48.766;2.272;2023-10-19T02:37:57;14.45;;;3.53;;
10226;SDS011;15634;48.766;2.272;2023-10-19T02:40:23;14.98;;;3.50;;
10226;SDS011;15634;48.766;2.272;2023-10-19T02:42:50;11.82;;;3.13;;
10226;SDS011;15634;48.766;2.272;2023-10-19T02:45:17;14.68;;;3.65;;
10226;SDS011;15634;48.766;2.272;2023-10-19T02:47:44;13.90;;;3.40;;
10226;SDS011;15634;48.766;2.272;2023-10-19T02:50:10;10.98;;;4.10;;
10226;SDS011;15634;48.766;2.272;2023-10-19T02:52:40;11.68;;;3.38;;
10226;SDS011;15634;48.766;2.272;2023-10-19T02:55:07;15.43;;;3.67;;
10226;SDS011;15634;48.766;2.272;2023-10-19T02:57:34;14.68;;;3.30;;
10226;SDS011;15634;48.766;2.272;2023-10-19T03:00:00;12.38;;;4.35;;
10226;SDS011;15634;48.766;2.272;2023-10-19T03:02:32;15.13;;;3.50;;
10226;SDS011;15634;48.766;2.272;2023-10-19T03:04:58;13.02;;;3.35;;
10226;SDS011;15634;48.766;2.272;2023-10-19T03:07:25;17.58;;;4.45;;
10226;SDS011;15634;48.766;2.272;2023-10-19T03:09:51;12.25;;;2.90;;
10226;SDS011;15634;48.766;2.272;2023-10-19T03:12:20;14.13;;;4.25;;
10226;SDS011;15634;48.766;2.272;2023-10-19T03:14:50;18.98;;;4.18;;
10226;SDS011;15634;48.766;2.272;2023-10-19T03:17:17;16.92;;;3.85;;
10226;SDS011;15634;48.766;2.272;2023-10-19T03:19:43;12.98;;;3.10;;
10226;SDS011;15634;48.766;2.272;2023-10-19T03:22:09;14.88;;;3.58;;
10226;SDS011;15634;48.766;2.272;2023-10-19T03:24:36;14.77;;;3.30;;
10226;SDS011;15634;48.766;2.272;2023-10-19T03:27:10;14.23;;;3.92;;
10226;SDS011;15634;48.766;2.272;2023-10-19T03:29:42;12.57;;;3.20;;
10226;SDS011;15634;48.766;2.272;2023-10-19T03:32:13;15.98;;;3.63;;
10226;SDS011;15634;48.766;2.272;2023-10-19T03:34:39;15.40;;;3.72;;
10226;SDS011;15634;48.766;2.272;2023-10-19T03:37:12;24.13;;;4.15;;
10226;SDS011;15634;48.766;2.272;2023-10-19T03:39:39;17.52;;;3.40;;
10226;SDS011;15634;48.766;2.272;2023-10-19T03:42:05;18.42;;;3.63;;
10226;SDS011;15634;48.766;2.272;2023-10-19T03:44:34;18.05;;;3.53;;
10226;SDS011;15634;48.766;2.272;2023-10-19T03:47:15;18.70;;;4.07;;
10226;SDS011;15634;48.766;2.272;2023-10-19T03:49:45;15.98;;;3.55;;
10226;SDS011;15634;48.766;2.272;2023-10-19T03:52:11;15.07;;;3.85;;
10226;SDS011;15634;48.766;2.272;2023-10-19T03:54:38;12.52;;;2.83;;
10226;SDS011;15634;48.766;2.272;2023-10-19T03:57:04;14.10;;;3.13;;
10226;SDS011;15634;48.766;2.272;2023-10-19T03:59:49;16.10;;;3.80;;
10226;SDS011;15634;48.766;2.272;2023-10-19T04:02:21;17.15;;;3.75;;
10226;SDS011;15634;48.766;2.272;2023-10-19T04:04:49;15.57;;;3.80;;
10226;SDS011;15634;48.766;2.272;2023-10-19T04:07:17;15.82;;;3.30;;
10226;SDS011;15634;48.766;2.272;2023-10-19T04:09:50;12.32;;;3.50;;
10226;SDS011;15634;48.766;2.272;2023-10-19T04:12:37;15.27;;;3.25;;
10226;SDS011;15634;48.766;2.272;2023-10-19T04:15:06;16.73;;;3.83;;
10226;SDS011;15634;48.766;2.272;2023-10-19T04:17:41;14.02;;;3.65;;
10226;SDS011;15634;48.766;2.272;2023-10-19T04:20:08;18.05;;;3.50;;
10226;SDS011;15634;48.766;2.272;2023-10-19T04:22:52;13.57;;;3.15;;
10226;SDS011;15634;48.766;2.272;2023-10-19T04:25:23;15.52;;;4.38;;
10226;SDS011;15634;48.766;2.272;2023-10-19T04:27:52;11.63;;;4.13;;
10226;SDS011;15634;48.766;2.272;2023-10-19T04:30:18;15.15;;;3.45;;
10226;SDS011;15634;48.766;2.272;2023-10-19T04:32:47;11.65;;;3.85;;
10226;SDS011;15634;48.766;2.272;2023-10-19T04:35:14;16.13;;;3.80;;
10226;SDS011;15634;48.766;2.272;2023-10-19T04:37:46;13.60;;;3.92;;
10226;SDS011;15634;48.766;2.272;2023-10-19T04:40:12;16.83;;;3.60;;
10226;SDS011;15634;48.766;2.272;2023-10-19T04:42:38;14.80;;;3.28;;
10226;SDS011;15634;48.766;2.272;2023-10-19T04:45:05;17.27;;;3.88;;
10226;SDS011;15634;48.766;2.272;2023-10-19T04:47:31;15.15;;;3.85;;
10226;SDS011;15634;48.766;2.272;2023-10-19T04:50:00;10.50;;;3.35;;
10226;SDS011;15634;48.766;2.272;2023-10-19T04:52:26;17.33;;;3.78;;
10226;SDS011;15634;48.766;2.272;2023-10-19T04:54:52;15.43;;;3.42;;
10226;SDS011;15634;48.766;2.272;2023-10-19T04:57:19;9.57;;;3.42;;
10226;SDS011;15634;48.766;2.272;2023-10-19T04:59:46;14.20;;;3.42;;
10226;SDS011;15634;48.766;2.272;2023-10-19T05:02:11;11.82;;;3.67;;
10226;SDS011;15634;48.766;2.272;2023-10-19T05:04:38;15.32;;;3.45;;
10226;SDS011;15634;48.766;2.272;2023-10-19T05:07:05;14.35;;;3.63;;
10226;SDS011;15634;48.766;2.272;2023-10-19T05:09:31;8.68;;;3.67;;
10226;SDS011;15634;48.766;2.272;2023-10-19T05:11:57;19.33;;;3.40;;
10226;SDS011;15634;48.766;2.272;2023-10-19T05:14:23;14.35;;;3.38;;
10226;SDS011;15634;48.766;2.272;2023-10-19T05:16:49;12.10;;;3.45;;
10226;SDS011;15634;48.766;2.272;2023-10-19T05:19:15;15.00;;;3.58;;
10226;SDS011;15634;48.766;2.272;2023-10-19T05:21:41;12.02;;;3.00;;
10226;SDS011;15634;48.766;2.272;2023-10-19T05:24:08;13.05;;;3.13;;
10226;SDS011;15634;48.766;2.272;2023-10-19T05:26:34;11.98;;;3.90;;
10226;SDS011;15634;48.766;2.272;2023-10-19T05:29:00;11.23;;;3.60;;
10226;SDS011;15634;48.766;2.272;2023-10-19T05:31:26;14.48;;;3.83;;
10226;SDS011;15634;48.766;2.272;2023-10-19T05:33:53;14.88;;;3.97;;
10226;SDS011;15634;48.766;2.272;2023-10-19T05:36:19;12.13;;;4.10;;
10226;SDS011;15634;48.766;2.272;2023-10-19T05:38:45;11.88;;;3.28;;
10226;SDS011;15634;48.766;2.272;2023-10-19T05:41:11;12.00;;;3.75;;
10226;SDS011;15634;48.766;2.272;2023-10-19T05:43:37;14.00;;;3.58;;
10226;SDS011;15634;48.766;2.272;2023-10-19T05:46:04;11.27;;;3.92;;
10226;SDS011;15634;48.766;2.272;2023-10-19T05:48:29;14.75;;;3.90;;
10226;SDS011;15634;48.766;2.272;2023-10-19T05:50:55;12.20;;;3.65;;
10226;SDS011;15634;48.766;2.272;2023-10-19T05:53:21;11.27;;;3.30;;
10226;SDS011;15634;48.766;2.272;2023-10-19T05:55:48;12.95;;;3.53;;
10226;SDS011;15634;48.766;2.272;2023-10-19T05:58:14;12.85;;;3.20;;
10226;SDS011;15634;48.766;2.272;2023-10-19T06:00:41;13.02;;;3.20;;
10226;SDS011;15634;48.766;2.272;2023-10-19T06:03:07;13.00;;;3.53;;
10226;SDS011;15634;48.766;2.272;2023-10-19T06:05:33;13.25;;;3.75;;
10226;SDS011;15634;48.766;2.272;2023-10-19T06:07:59;9.48;;;2.88;;
10226;SDS011;15634;48.766;2.272;2023-10-19T06:10:27;12.13;;;3.47;;
10226;SDS011;15634;48.766;2.272;2023-10-19T06:12:53;9.45;;;3.40;;
10226;SDS011;15634;48.766;2.272;2023-10-19T06:15:20;9.35;;;3.50;;
10226;SDS011;15634;48.766;2.272;2023-10-19T06:17:47;9.45;;;3.30;;
10226;SDS011;15634;48.766;2.272;2023-10-19T06:20:14;7.18;;;3.08;;
10226;SDS011;15634;48.766;2.272;2023-10-19T06:22:58;11.63;;;3.47;;
10226;SDS011;15634;48.766;2.272;2023-10-19T06:25:31;9.35;;;2.90;;
10226;SDS011;15634;48.766;2.272;2023-10-19T06:27:57;12.48;;;3.20;;
10226;SDS011;15634;48.766;2.272;2023-10-19T06:30:24;9.82;;;3.03;;
10226;SDS011;15634;48.766;2.272;2023-10-19T06:32:52;12.20;;;3.38;;
10226;SDS011;15634;48.766;2.272;2023-10-19T06:35:18;11.55;;;3.53;;
10226;SDS011;15634;48.766;2.272;2023-10-19T06:37:44;12.65;;;3.30;;
10226;SDS011;15634;48.766;2.272;2023-10-19T06:40:11;13.15;;;3.22;;
10226;SDS011;15634;48.766;2.272;2023-10-19T06:42:39;11.73;;;3.10;;
10226;SDS011;15634;48.766;2.272;2023-10-19T06:45:06;11.88;;;3.20;;
10226;SDS011;15634;48.766;2.272;2023-10-19T06:47:32;8.35;;;2.80;;
10226;SDS011;15634;48.766;2.272;2023-10-19T06:50:03;11.07;;;3.75;;
10226;SDS011;15634;48.766;2.272;2023-10-19T06:52:30;11.25;;;3.22;;
10226;SDS011;15634;48.766;2.272;2023-10-19T06:54:57;12.45;;;3.55;;
10226;SDS011;15634;48.766;2.272;2023-10-19T06:57:23;13.23;;;3.30;;
10226;SDS011;15634;48.766;2.272;2023-10-19T06:59:49;8.85;;;2.97;;
10226;SDS011;15634;48.766;2.272;2023-10-19T07:02:17;9.95;;;2.78;;
10226;SDS011;15634;48.766;2.272;2023-10-19T07:04:45;14.05;;;3.63;;
10226;SDS011;15634;48.766;2.272;2023-10-19T07:07:13;11.13;;;3.47;;
10226;SDS011;15634;48.766;2.272;2023-10-19T07:09:39;10.18;;;3.55;;
10226;SDS011;15634;48.766;2.272;2023-10-19T07:12:06;8.88;;;2.92;;
10226;SDS011;15634;48.766;2.272;2023-10-19T07:14:33;9.98;;;3.08;;
10226;SDS011;15634;48.766;2.272;2023-10-19T07:16:59;12.48;;;3.53;;
10226;SDS011;15634;48.766;2.272;2023-10-19T07:19:25;9.20;;;3.50;;
10226;SDS011;15634;48.766;2.272;2023-10-19T07:21:51;10.93;;;3.05;;
10226;SDS011;15634;48.766;2.272;2023-10-19T07:24:23;10.40;;;2.90;;
10226;SDS011;15634;48.766;2.272;2023-10-19T07:26:49;10.55;;;2.80;;
10226;SDS011;15634;48.766;2.272;2023-10-19T07:29:26;10.10;;;3.00;;
10226;SDS011;15634;48.766;2.272;2023-10-19T07:31:53;8.90;;;3.03;;
10226;SDS011;15634;48.766;2.272;2023-10-19T07:34:20;6.78;;;2.70;;
10226;SDS011;15634;48.766;2.272;2023-10-19T07:36:50;10.48;;;3.20;;
10226;SDS011;15634;48.766;2.272;2023-10-19T07:39:19;9.55;;;3.47;;
10226;SDS011;15634;48.766;2.272;2023-10-19T07:41:45;11.95;;;2.85;;
10226;SDS011;15634;48.766;2.272;2023-10-19T07:44:11;7.65;;;2.80;;
10226;SDS011;15634;48.766;2.272;2023-10-19T07:46:37;6.70;;;2.58;;
10226;SDS011;15634;48.766;2.272;2023-10-19T07:49:03;6.35;;;2.83;;
10226;SDS011;15634;48.766;2.272;2023-10-19T07:51:30;8.38;;;2.80;;
10226;SDS011;15634;48.766;2.272;2023-10-19T07:53:56;9.90;;;3.13;;
10226;SDS011;15634;48.766;2.272;2023-10-19T07:56:22;7.28;;;2.92;;
10226;SDS011;15634;48.766;2.272;2023-10-19T07:58:49;9.98;;;2.65;;
10226;SDS011;15634;48.766;2.272;2023-10-19T08:01:15;9.45;;;2.80;;
10226;SDS011;15634;48.766;2.272;2023-10-19T08:03:41;9.65;;;2.67;;
10226;SDS011;15634;48.766;2.272;2023-10-19T08:06:07;4.07;;;2.30;;
10226;SDS011;15634;48.766;2.272;2023-10-19T08:08:33;6.95;;;2.58;;
10226;SDS011;15634;48.766;2.272;2023-10-19T08:11:00;8.38;;;2.75;;
10226;SDS011;15634;48.766;2.272;2023-10-19T08:13:27;10.88;;;3.00;;
10226;SDS011;15634;48.766;2.272;2023-10-19T08:15:53;7.30;;;2.40;;
10226;SDS011;15634;48.766;2.272;2023-10-19T08:18:20;8.27;;;2.67;;
10226;SDS011;15634;48.766;2.272;2023-10-19T08:20:46;9.02;;;2.80;;
10226;SDS011;15634;48.766;2.272;2023-10-19T08:23:14;5.85;;;2.40;;
10226;SDS011;15634;48.766;2.272;2023-10-19T08:25:41;7.13;;;2.55;;
10226;SDS011;15634;48.766;2.272;2023-10-19T08:28:09;7.32;;;2.40;;
10226;SDS011;15634;48.766;2.272;2023-10-19T08:30:36;5.10;;;2.28;;
10226;SDS011;15634;48.766;2.272;2023-10-19T08:33:02;6.03;;;2.40;;
10226;SDS011;15634;48.766;2.272;2023-10-19T08:35:28;5.97;;;2.40;;
10226;SDS011;15634;48.766;2.272;2023-10-19T08:37:56;6.05;;;2.20;;
10226;SDS011;15634;48.766;2.272;2023-10-19T08:40:22;6.55;;;2.90;;
10226;SDS011;15634;48.766;2.272;2023-10-19T08:42:51;7.07;;;2.55;;
10226;SDS011;15634;48.766;2.272;2023-10-19T08:45:18;11.02;;;3.08;;
10226;SDS011;15634;48.766;2.272;2023-10-19T08:47:53;5.35;;;2.50;;
10226;SDS011;15634;48.766;2.272;2023-10-19T08:50:23;8.23;;;2.90;;
10226;SDS011;15634;48.766;2.272;2023-10-19T08:52:53;5.28;;;2.35;;
10226;SDS011;15634;48.766;2.272;2023-10-19T08:55:20;6.72;;;2.67;;
10226;SDS011;15634;48.766;2.272;2023-10-19T08:57:46;6.95;;;2.50;;
10226;SDS011;15634;48.766;2.272;2023-10-19T09:00:13;6.80;;;2.78;;
10226;SDS011;15634;48.766;2.272;2023-10-19T09:02:43;7.13;;;2.53;;
10226;SDS011;15634;48.766;2.272;2023-10-19T09:05:09;8.32;;;2.58;;
10226;SDS011;15634;48.766;2.272;2023-10-19T09:07:45;5.57;;;2.38;;
10226;SDS011;15634;48.766;2.272;2023-10-19T09:10:14;3.70;;;1.90;;
10226;SDS011;15634;48.766;2.272;2023-10-19T09:12:41;6.95;;;2.08;;
10226;SDS011;15634;48.766;2.272;2023-10-19T09:15:41;5.03;;;1.88;;
10226;SDS011;15634;48.766;2.272;2023-10-19T09:18:16;6.30;;;2.10;;
10226;SDS011;15634;48.766;2.272;2023-10-19T09:20:44;7.32;;;2.00;;
10226;SDS011;15634;48.766;2.272;2023-10-19T09:23:29;7.50;;;2.05;;
10226;SDS011;15634;48.766;2.272;2023-10-19T09:25:56;4.47;;;2.40;;
10226;SDS011;15634;48.766;2.272;2023-10-19T09:28:23;6.13;;;2.55;;
10226;SDS011;15634;48.766;2.272;2023-10-19T09:30:49;3.00;;;1.95;;
10226;SDS011;15634;48.766;2.272;2023-10-19T09:33:16;7.85;;;2.42;;
10226;SDS011;15634;48.766;2.272;2023-10-19T09:35:49;3.55;;;1.85;;
10226;SDS011;15634;48.766;2.272;2023-10-19T09:38:17;7.57;;;2.05;;
10226;SDS011;15634;48.766;2.272;2023-10-19T09:40:50;2.95;;;1.90;;
10226;SDS011;15634;48.766;2.272;2023-10-19T09:43:30;5.93;;;2.35;;
10226;SDS011;15634;48.766;2.272;2023-10-19T09:46:00;5.30;;;2.17;;
10226;SDS011;15634;48.766;2.272;2023-10-19T09:48:26;4.68;;;2.20;;
10226;SDS011;15634;48.766;2.272;2023-10-19T09:50:54;4.15;;;2.00;;
10226;SDS011;15634;48.766;2.272;2023-10-19T09:53:22;3.35;;;2.10;;
10226;SDS011;15634;48.766;2.272;2023-10-19T09:55:49;4.90;;;2.13;;
10226;SDS011;15634;48.766;2.272;2023-10-19T09:58:16;7.22;;;2.47;;
10226;SDS011;15634;48.766;2.272;2023-10-19T10:00:44;4.97;;;2.17;;
10226;SDS011;15634;48.766;2.272;2023-10-19T10:03:41;4.70;;;1.95;;
10226;SDS011;15634;48.766;2.272;2023-10-19T10:06:06;6.07;;;2.15;;
10226;SDS011;15634;48.766;2.272;2023-10-19T10:08:33;6.50;;;2.13;;
10226;SDS011;15634;48.766;2.272;2023-10-19T10:11:18;5.20;;;2.50;;
10226;SDS011;15634;48.766;2.272;2023-10-19T10:13:45;4.13;;;2.20;;
10226;SDS011;15634;48.766;2.272;2023-10-19T10:16:14;3.88;;;1.90;;
10226;SDS011;15634;48.766;2.272;2023-10-19T10:18:40;5.53;;;1.70;;
10226;SDS011;15634;48.766;2.272;2023-10-19T10:26:17;4.65;;;2.30;;
10226;SDS011;15634;48.766;2.272;2023-10-19T10:29:06;5.97;;;1.98;;
10226;SDS011;15634;48.766;2.272;2023-10-19T10:31:34;3.38;;;2.10;;
10226;SDS011;15634;48.766;2.272;2023-10-19T10:34:01;5.95;;;2.05;;
10226;SDS011;15634;48.766;2.272;2023-10-19T10:36:29;4.18;;;1.70;;
10226;SDS011;15634;48.766;2.272;2023-10-19T10:39:25;3.72;;;1.67;;
10226;SDS011;15634;48.766;2.272;2023-10-19T10:41:57;3.45;;;1.92;;
10226;SDS011;15634;48.766;2.272;2023-10-19T10:44:43;5.35;;;2.13;;
10226;SDS011;15634;48.766;2.272;2023-10-19T10:47:10;4.78;;;2.00;;
10226;SDS011;15634;48.766;2.272;2023-10-19T10:49:52;7.68;;;2.00;;
10226;SDS011;15634;48.766;2.272;2023-10-19T10:52:29;3.78;;;2.00;;
10226;SDS011;15634;48.766;2.272;2023-10-19T10:54:55;7.13;;;2.17;;
10226;SDS011;15634;48.766;2.272;2023-10-19T10:57:21;5.05;;;2.03;;
10226;SDS011;15634;48.766;2.272;2023-10-19T11:00:00;5.88;;;2.17;;
10226;SDS011;15634;48.766;2.272;2023-10-19T11:02:26;5.05;;;2.00;;
10226;SDS011;15634;48.766;2.272;2023-10-19T11:04:52;4.25;;;1.98;;
10226;SDS011;15634;48.766;2.272;2023-10-19T11:07:18;6.80;;;2.08;;
10226;SDS011;15634;48.766;2.272;2023-10-19T11:09:47;6.45;;;2.00;;
10226;SDS011;15634;48.766;2.272;2023-10-19T11:12:13;5.68;;;2.00;;
10226;SDS011;15634;48.766;2.272;2023-10-19T11:14:56;5.63;;;2.40;;
10226;SDS011;15634;48.766;2.272;2023-10-19T11:17:24;6.40;;;2.30;;
10226;SDS011;15634;48.766;2.272;2023-10-19T11:19:55;10.10;;;2.63;;
10226;SDS011;15634;48.766;2.272;2023-10-19T11:22:22;5.68;;;1.73;;
10226;SDS011;15634;48.766;2.272;2023-10-19T11:24:50;5.28;;;2.25;;
10226;SDS011;15634;48.766;2.272;2023-10-19T11:27:24;5.70;;;2.17;;
10226;SDS011;15634;48.766;2.272;2023-10-19T11:29:53;5.25;;;1.88;;
10226;SDS011;15634;48.766;2.272;2023-10-19T11:32:21;9.00;;;2.10;;
10226;SDS011;15634;48.766;2.272;2023-10-19T11:34:47;4.13;;;2.00;;
10226;SDS011;15634;48.766;2.272;2023-10-19T11:37:13;6.47;;;2.05;;
10226;SDS011;15634;48.766;2.272;2023-10-19T11:39:39;3.75;;;2.10;;
10226;SDS011;15634;48.766;2.272;2023-10-19T11:42:07;5.80;;;2.10;;
10226;SDS011;15634;48.766;2.272;2023-10-19T11:44:33;4.70;;;2.22;;
10226;SDS011;15634;48.766;2.272;2023-10-19T11:46:59;7.82;;;2.05;;
10226;SDS011;15634;48.766;2.272;2023-10-19T11:49:25;6.35;;;2.20;;
10226;SDS011;15634;48.766;2.272;2023-10-19T11:51:51;6.53;;;2.30;;
10226;SDS011;15634;48.766;2.272;2023-10-19T11:54:17;4.05;;;1.63;;
10226;SDS011;15634;48.766;2.272;2023-10-19T11:56:43;4.20;;;1.90;;
10226;SDS011;15634;48.766;2.272;2023-10-19T11:59:09;3.67;;;1.85;;
10226;SDS011;15634;48.766;2.272;2023-10-19T12:01:37;4.10;;;2.20;;
10226;SDS011;15634;48.766;2.272;2023-10-19T12:04:03;4.18;;;1.90;;
10226;SDS011;15634;48.766;2.272;2023-10-19T12:06:30;7.70;;;2.13;;
10226;SDS011;15634;48.766;2.272;2023-10-19T12:08:56;2.90;;;1.80;;
10226;SDS011;15634;48.766;2.272;2023-10-19T12:11:27;5.18;;;2.25;;
10226;SDS011;15634;48.766;2.272;2023-10-19T12:13:53;6.47;;;1.95;;
10226;SDS011;15634;48.766;2.272;2023-10-19T12:16:19;4.82;;;1.80;;
10226;SDS011;15634;48.766;2.272;2023-10-19T12:18:49;5.25;;;2.05;;
10226;SDS011;15634;48.766;2.272;2023-10-19T12:21:17;5.10;;;1.88;;
10226;SDS011;15634;48.766;2.272;2023-10-19T12:23:52;4.45;;;1.98;;
10226;SDS011;15634;48.766;2.272;2023-10-19T12:26:20;3.90;;;1.98;;
10226;SDS011;15634;48.766;2.272;2023-10-19T12:28:46;4.43;;;1.67;;
10226;SDS011;15634;48.766;2.272;2023-10-19T12:31:13;3.60;;;2.00;;
10226;SDS011;15634;48.766;2.272;2023-10-19T12:33:40;7.75;;;2.10;;
10226;SDS011;15634;48.766;2.272;2023-10-19T12:36:06;8.65;;;2.20;;
10226;SDS011;15634;48.766;2.272;2023-10-19T12:38:51;4.35;;;1.70;;
10226;SDS011;15634;48.766;2.272;2023-10-19T12:41:20;5.20;;;1.88;;
10226;SDS011;15634;48.766;2.272;2023-10-19T12:43:46;6.25;;;1.75;;
10226;SDS011;15634;48.766;2.272;2023-10-19T12:46:13;6.40;;;1.65;;
10226;SDS011;15634;48.766;2.272;2023-10-19T12:48:42;5.70;;;2.10;;
10226;SDS011;15634;48.766;2.272;2023-10-19T12:51:08;7.18;;;2.25;;
10226;SDS011;15634;48.766;2.272;2023-10-19T12:53:36;5.30;;;2.10;;
10226;SDS011;15634;48.766;2.272;2023-10-19T12:56:03;4.50;;;2.08;;
10226;SDS011;15634;48.766;2.272;2023-10-19T12:58:30;4.25;;;1.77;;
10226;SDS011;15634;48.766;2.272;2023-10-19T13:00:57;4.57;;;2.42;;
10226;SDS011;15634;48.766;2.272;2023-10-19T13:03:23;4.47;;;1.85;;
10226;SDS011;15634;48.766;2.272;2023-10-19T13:05:52;4.90;;;1.73;;
10226;SDS011;15634;48.766;2.272;2023-10-19T13:08:18;4.25;;;1.90;;
10226;SDS011;15634;48.766;2.272;2023-10-19T13:10:46;5.18;;;1.75;;
10226;SDS011;15634;48.766;2.272;2023-10-19T13:13:13;4.03;;;1.88;;
10226;SDS011;15634;48.766;2.272;2023-10-19T13:15:43;6.95;;;2.30;;
10226;SDS011;15634;48.766;2.272;2023-10-19T13:18:10;6.00;;;2.08;;
10226;SDS011;15634;48.766;2.272;2023-10-19T13:20:39;6.88;;;2.17;;
10226;SDS011;15634;48.766;2.272;2023-10-19T13:23:09;6.78;;;2.10;;
10226;SDS011;15634;48.766;2.272;2023-10-19T13:25:41;8.50;;;2.67;;
10226;SDS011;15634;48.766;2.272;2023-10-19T13:28:12;6.32;;;2.80;;
10226;SDS011;15634;48.766;2.272;2023-10-19T13:33:05;5.07;;;1.77;;
10226;SDS011;15634;48.766;2.272;2023-10-19T13:35:32;5.40;;;2.00;;
10226;SDS011;15634;48.766;2.272;2023-10-19T13:37:58;6.45;;;2.00;;
10226;SDS011;15634;48.766;2.272;2023-10-19T13:40:26;4.97;;;1.95;;
10226;SDS011;15634;48.766;2.272;2023-10-19T13:42:57;4.55;;;2.03;;
10226;SDS011;15634;48.766;2.272;2023-10-19T13:45:24;7.25;;;1.85;;
10226;SDS011;15634;48.766;2.272;2023-10-19T13:47:50;6.07;;;1.95;;
10226;SDS011;15634;48.766;2.272;2023-10-19T13:50:23;6.78;;;2.03;;
10226;SDS011;15634;48.766;2.272;2023-10-19T13:52:52;4.22;;;1.90;;
10226;SDS011;15634;48.766;2.272;2023-10-19T13:55:19;6.70;;;1.80;;
10226;SDS011;15634;48.766;2.272;2023-10-19T13:57:46;5.43;;;1.83;;
10226;SDS011;15634;48.766;2.272;2023-10-19T14:00:13;5.65;;;2.13;;
10226;SDS011;15634;48.766;2.272;2023-10-19T14:02:47;5.22;;;1.98;;
10226;SDS011;15634;48.766;2.272;2023-10-19T14:05:14;6.18;;;2.00;;
10226;SDS011;15634;48.766;2.272;2023-10-19T14:07:40;4.70;;;1.80;;
10226;SDS011;15634;48.766;2.272;2023-10-19T14:10:06;4.88;;;1.95;;
10226;SDS011;15634;48.766;2.272;2023-10-19T14:12:37;5.05;;;1.83;;
10226;SDS011;15634;48.766;2.272;2023-10-19T14:15:06;5.40;;;1.83;;
10226;SDS011;15634;48.766;2.272;2023-10-19T14:17:33;7.82;;;1.95;;
10226;SDS011;15634;48.766;2.272;2023-10-19T14:19:59;4.03;;;1.40;;
10226;SDS011;15634;48.766;2.272;2023-10-19T14:22:25;8.13;;;1.85;;
10226;SDS011;15634;48.766;2.272;2023-10-19T14:24:52;4.35;;;1.92;;
10226;SDS011;15634;48.766;2.272;2023-10-19T14:27:18;5.93;;;1.98;;
10226;SDS011;15634;48.766;2.272;2023-10-19T14:29:46;3.88;;;1.90;;
10226;SDS011;15634;48.766;2.272;2023-10-19T14:32:12;3.90;;;1.67;;
10226;SDS011;15634;48.766;2.272;2023-10-19T14:34:38;4.10;;;1.80;;
10226;SDS011;15634;48.766;2.272;2023-10-19T14:37:04;4.10;;;1.63;;
10226;SDS011;15634;48.766;2.272;2023-10-19T14:39:30;6.65;;;1.83;;
10226;SDS011;15634;48.766;2.272;2023-10-19T14:41:55;3.92;;;1.92;;
10226;SDS011;15634;48.766;2.272;2023-10-19T14:44:21;4.20;;;1.60;;
10226;SDS011;15634;48.766;2.272;2023-10-19T14:46:47;4.50;;;2.05;;
10226;SDS011;15634;48.766;2.272;2023-10-19T14:49:13;5.15;;;2.00;;
10226;SDS011;15634;48.766;2.272;2023-10-19T14:51:39;4.82;;;1.65;;
10226;SDS011;15634;48.766;2.272;2023-10-19T14:54:07;4.85;;;1.83;;
10226;SDS011;15634;48.766;2.272;2023-10-19T14:56:33;3.28;;;1.67;;
10226;SDS011;15634;48.766;2.272;2023-10-19T14:58:59;6.03;;;2.20;;